VKG060 EKRN-LGKO
Flight info
| Callsign | VKG060 |
|---|---|
| Flight time | N/A |
| Altitude | 35000 |
| Route | VAVUN L996 DENKO L616 MISKA DCT DESEN DCT OGDAS DCT SAGAN DCT UPIVA DCT PATAK DCT PARAK DCT NISVA DCT VANET DCT NIKTI UN127 LMO UL618 MES UN139 ERIMA N139 LURUS UL995 KOPAR |
| Aircraft | A321/M-SDE2E3FGHIJ1RWXYZ/LB2 |
Departure
| Time | 2026-05-08 07:57 |
|---|---|
| Airport | Bornholm Airport (EKRN) |
Arrival
| Time | N/A |
|---|---|
| Airport | Kos International Airport "Ippokratis" (LGKO) |
| Time | Latitude | Longitude | Altitude | Speed | Heading |
|---|---|---|---|---|---|
| 2026-05-08 07:33 | 55.06894 | 14.74812 | 54 ft | 0 kts | 165° |
| 2026-05-08 07:51 | 55.06893 | 14.74813 | 53 ft | 2 kts | 165° |
| 2026-05-08 07:51 | 55.06858 | 14.74836 | 53 ft | 6 kts | 159° |
| 2026-05-08 07:52 | 55.06801 | 14.74853 | 53 ft | 12 kts | 179° |
| 2026-05-08 07:52 | 55.06709 | 14.74849 | 53 ft | 13 kts | 181° |
| 2026-05-08 07:52 | 55.06632 | 14.74811 | 51 ft | 10 kts | 240° |
| 2026-05-08 07:52 | 55.06644 | 14.74699 | 50 ft | 9 kts | 291° |
| 2026-05-08 07:53 | 55.06666 | 14.74612 | 53 ft | 7 kts | 294° |
| 2026-05-08 07:53 | 55.06684 | 14.74541 | 53 ft | 6 kts | 289° |
| 2026-05-08 07:53 | 55.06684 | 14.74483 | 53 ft | 4 kts | 284° |
| 2026-05-08 07:53 | 55.06701 | 14.74502 | 53 ft | 4 kts | 89° |
| 2026-05-08 07:54 | 55.06684 | 14.74547 | 53 ft | 4 kts | 112° |
| 2026-05-08 07:54 | 55.06680 | 14.74563 | 53 ft | 0 kts | 114° |
| 2026-05-08 07:56 | 55.06677 | 14.74577 | 53 ft | 10 kts | 113° |
| 2026-05-08 07:56 | 55.06530 | 14.75164 | 54 ft | 92 kts | 114° |
| 2026-05-08 07:56 | 55.06187 | 14.76553 | 60 ft | 153 kts | 109° |
| 2026-05-08 07:57 | 55.05747 | 14.78263 | 799 ft | 151 kts | 110° |
| 2026-05-08 07:57 | 55.05321 | 14.79932 | 1708 ft | 150 kts | 110° |
| 2026-05-08 07:57 | 55.04623 | 14.81347 | 2252 ft | 167 kts | 146° |
| 2026-05-08 07:57 | 55.03405 | 14.81890 | 2450 ft | 194 kts | 165° |
| 2026-05-08 07:58 | 55.02005 | 14.82322 | 2620 ft | 215 kts | 165° |
| 2026-05-08 07:58 | 55.00450 | 14.82831 | 2795 ft | 240 kts | 166° |
| 2026-05-08 07:58 | 54.98742 | 14.83398 | 3009 ft | 255 kts | 166° |
| 2026-05-08 07:58 | 54.96986 | 14.83988 | 3224 ft | 257 kts | 165° |
| 2026-05-08 07:59 | 54.95211 | 14.84591 | 3904 ft | 260 kts | 165° |
| 2026-05-08 07:59 | 54.93423 | 14.85197 | 4753 ft | 262 kts | 165° |
| 2026-05-08 07:59 | 54.91620 | 14.85810 | 5527 ft | 266 kts | 165° |
| 2026-05-08 07:59 | 54.89793 | 14.86434 | 6292 ft | 269 kts | 165° |
| 2026-05-08 08:00 | 54.87941 | 14.87064 | 7015 ft | 273 kts | 165° |
| 2026-05-08 08:00 | 54.86064 | 14.87702 | 7729 ft | 277 kts | 165° |
| 2026-05-08 08:00 | 54.84163 | 14.88346 | 8429 ft | 279 kts | 165° |
| 2026-05-08 08:00 | 54.82246 | 14.88998 | 9122 ft | 283 kts | 165° |
| 2026-05-08 08:01 | 54.80305 | 14.89660 | 9821 ft | 286 kts | 165° |
| 2026-05-08 08:01 | 54.78338 | 14.90332 | 10457 ft | 290 kts | 165° |
| 2026-05-08 08:01 | 54.76289 | 14.91038 | 10633 ft | 311 kts | 165° |
| 2026-05-08 08:01 | 54.74096 | 14.91793 | 10757 ft | 332 kts | 165° |
| 2026-05-08 08:02 | 54.71774 | 14.92586 | 11072 ft | 345 kts | 166° |
| 2026-05-08 08:02 | 54.69401 | 14.93384 | 11641 ft | 350 kts | 166° |
| 2026-05-08 08:02 | 54.67000 | 14.94183 | 12264 ft | 353 kts | 166° |
| 2026-05-08 08:02 | 54.64569 | 14.94993 | 12900 ft | 357 kts | 166° |
| 2026-05-08 08:03 | 54.62126 | 14.95807 | 13517 ft | 360 kts | 166° |
| 2026-05-08 08:03 | 54.59692 | 14.96624 | 14108 ft | 363 kts | 166° |
| 2026-05-08 08:03 | 54.57190 | 14.97469 | 14615 ft | 369 kts | 167° |
| 2026-05-08 08:03 | 54.54661 | 14.98320 | 15165 ft | 372 kts | 167° |
| 2026-05-08 08:04 | 54.52110 | 14.99175 | 15703 ft | 375 kts | 167° |
| 2026-05-08 08:04 | 54.49532 | 15.00035 | 16213 ft | 379 kts | 167° |
| 2026-05-08 08:04 | 54.46931 | 15.00904 | 16762 ft | 382 kts | 167° |
| 2026-05-08 08:04 | 54.44307 | 15.01779 | 17242 ft | 387 kts | 167° |
| 2026-05-08 08:05 | 54.41653 | 15.02663 | 17767 ft | 390 kts | 168° |
| 2026-05-08 08:05 | 54.38980 | 15.03552 | 18297 ft | 393 kts | 168° |
| 2026-05-08 08:05 | 54.36282 | 15.04446 | 18742 ft | 397 kts | 168° |
| 2026-05-08 08:05 | 54.33562 | 15.05346 | 19181 ft | 400 kts | 168° |
| 2026-05-08 08:06 | 54.30820 | 15.06252 | 19587 ft | 403 kts | 169° |
| 2026-05-08 08:06 | 54.28053 | 15.07165 | 20033 ft | 406 kts | 168° |
| 2026-05-08 08:06 | 54.25274 | 15.08085 | 20459 ft | 409 kts | 168° |
| 2026-05-08 08:06 | 54.22464 | 15.09015 | 20862 ft | 412 kts | 169° |
| 2026-05-08 08:07 | 54.19642 | 15.09947 | 21321 ft | 414 kts | 169° |
| 2026-05-08 08:07 | 54.16810 | 15.10880 | 21822 ft | 415 kts | 169° |
| 2026-05-08 08:07 | 54.13971 | 15.11813 | 22247 ft | 418 kts | 169° |
| 2026-05-08 08:07 | 54.11103 | 15.12755 | 22599 ft | 422 kts | 169° |
| 2026-05-08 08:08 | 54.08208 | 15.13707 | 23007 ft | 424 kts | 169° |
| 2026-05-08 08:08 | 54.05306 | 15.14653 | 23444 ft | 426 kts | 169° |
| 2026-05-08 08:08 | 54.02379 | 15.15606 | 23824 ft | 429 kts | 170° |
| 2026-05-08 08:08 | 53.99447 | 15.16568 | 24207 ft | 430 kts | 170° |
| 2026-05-08 08:09 | 53.96501 | 15.17531 | 24583 ft | 432 kts | 170° |
| 2026-05-08 08:09 | 53.93550 | 15.18494 | 24969 ft | 433 kts | 170° |
| 2026-05-08 08:09 | 53.90585 | 15.19461 | 25297 ft | 435 kts | 170° |
| 2026-05-08 08:09 | 53.87609 | 15.20429 | 25653 ft | 436 kts | 170° |
| 2026-05-08 08:10 | 53.84621 | 15.21398 | 26011 ft | 437 kts | 170° |
| 2026-05-08 08:10 | 53.81628 | 15.22366 | 26359 ft | 439 kts | 170° |
| 2026-05-08 08:10 | 53.78617 | 15.23333 | 26661 ft | 442 kts | 170° |
| 2026-05-08 08:10 | 53.75594 | 15.24303 | 27005 ft | 443 kts | 171° |
| 2026-05-08 08:11 | 53.72560 | 15.25285 | 27371 ft | 444 kts | 171° |
| 2026-05-08 08:11 | 53.69521 | 15.26270 | 27700 ft | 447 kts | 171° |
| 2026-05-08 08:11 | 53.66466 | 15.27253 | 28027 ft | 448 kts | 171° |
| 2026-05-08 08:11 | 53.63400 | 15.28241 | 28348 ft | 449 kts | 171° |
| 2026-05-08 08:12 | 53.60328 | 15.29231 | 28658 ft | 451 kts | 171° |
| 2026-05-08 08:12 | 53.57286 | 15.30212 | 28935 ft | 451 kts | 171° |
| 2026-05-08 08:12 | 53.54187 | 15.31195 | 29209 ft | 453 kts | 170° |
| 2026-05-08 08:12 | 53.51087 | 15.32169 | 29445 ft | 455 kts | 171° |
| 2026-05-08 08:13 | 53.47994 | 15.33331 | 29733 ft | 458 kts | 165° |
| 2026-05-08 08:13 | 53.45007 | 15.35228 | 30021 ft | 461 kts | 156° |
| 2026-05-08 08:13 | 53.42101 | 15.37493 | 30352 ft | 460 kts | 156° |
| 2026-05-08 08:13 | 53.39200 | 15.39742 | 30687 ft | 459 kts | 156° |
| 2026-05-08 08:14 | 53.36299 | 15.41972 | 31012 ft | 458 kts | 156° |
| 2026-05-08 08:14 | 53.33396 | 15.44190 | 31322 ft | 458 kts | 156° |
| 2026-05-08 08:14 | 53.30501 | 15.46397 | 31630 ft | 457 kts | 157° |
| 2026-05-08 08:14 | 53.27603 | 15.48604 | 31932 ft | 457 kts | 157° |
| 2026-05-08 08:15 | 53.24710 | 15.50807 | 32253 ft | 457 kts | 157° |
| 2026-05-08 08:15 | 53.21821 | 15.53012 | 32541 ft | 457 kts | 156° |
| 2026-05-08 08:15 | 53.18923 | 15.55222 | 32791 ft | 458 kts | 157° |
| 2026-05-08 08:15 | 53.16022 | 15.57430 | 33072 ft | 458 kts | 157° |
| 2026-05-08 08:16 | 53.13122 | 15.59633 | 33365 ft | 458 kts | 157° |
| 2026-05-08 08:16 | 53.10227 | 15.61826 | 33662 ft | 457 kts | 157° |
| 2026-05-08 08:16 | 53.07328 | 15.64015 | 33961 ft | 457 kts | 157° |
| 2026-05-08 08:16 | 53.04435 | 15.66195 | 34243 ft | 456 kts | 157° |
| 2026-05-08 08:17 | 53.01546 | 15.68371 | 34470 ft | 456 kts | 157° |
| 2026-05-08 08:17 | 52.98655 | 15.70546 | 34687 ft | 456 kts | 157° |
| 2026-05-08 08:17 | 52.95769 | 15.72713 | 34907 ft | 455 kts | 157° |
| 2026-05-08 08:17 | 52.92883 | 15.74877 | 35108 ft | 455 kts | 157° |
| 2026-05-08 08:18 | 52.89995 | 15.77043 | 35193 ft | 454 kts | 157° |
| 2026-05-08 08:18 | 52.84253 | 15.81341 | 35205 ft | 452 kts | 158° |
| 2026-05-08 08:19 | 52.78504 | 15.85572 | 35204 ft | 452 kts | 158° |
| 2026-05-08 08:19 | 52.72709 | 15.89620 | 35198 ft | 452 kts | 159° |
| 2026-05-08 08:20 | 52.66903 | 15.93616 | 35199 ft | 452 kts | 159° |
| 2026-05-08 08:20 | 52.61105 | 15.97634 | 35183 ft | 452 kts | 159° |
| 2026-05-08 08:21 | 52.55310 | 16.01671 | 35183 ft | 452 kts | 159° |
| 2026-05-08 08:21 | 52.49515 | 16.05704 | 35182 ft | 452 kts | 159° |
| 2026-05-08 08:22 | 52.43722 | 16.09698 | 35181 ft | 451 kts | 159° |
| 2026-05-08 08:22 | 52.37926 | 16.13681 | 35178 ft | 452 kts | 159° |
| 2026-05-08 08:23 | 52.32131 | 16.17664 | 35177 ft | 452 kts | 159° |
| 2026-05-08 08:23 | 52.27312 | 16.20969 | 35177 ft | 452 kts | 159° |
| 2026-05-08 08:24 | 52.21513 | 16.24933 | 35175 ft | 452 kts | 159° |
| 2026-05-08 08:24 | 52.15713 | 16.28884 | 35177 ft | 452 kts | 159° |
| 2026-05-08 08:25 | 52.09916 | 16.32826 | 35162 ft | 452 kts | 159° |
| 2026-05-08 08:25 | 52.04108 | 16.36759 | 35164 ft | 452 kts | 159° |
| 2026-05-08 08:26 | 51.98296 | 16.40681 | 35162 ft | 452 kts | 159° |
| 2026-05-08 08:26 | 51.92491 | 16.44600 | 35166 ft | 452 kts | 159° |
| 2026-05-08 08:27 | 51.86682 | 16.48514 | 35167 ft | 452 kts | 159° |
| 2026-05-08 08:27 | 51.80866 | 16.52409 | 35159 ft | 452 kts | 160° |
| 2026-05-08 08:28 | 51.75050 | 16.56289 | 35158 ft | 452 kts | 160° |
| 2026-05-08 08:28 | 51.69236 | 16.60167 | 35165 ft | 452 kts | 160° |
| 2026-05-08 08:29 | 51.63423 | 16.64033 | 35161 ft | 452 kts | 160° |
| 2026-05-08 08:29 | 51.57606 | 16.67888 | 35166 ft | 452 kts | 160° |
| 2026-05-08 08:30 | 51.51787 | 16.71716 | 35154 ft | 452 kts | 160° |
| 2026-05-08 08:30 | 51.43059 | 16.77456 | 35156 ft | 452 kts | 160° |
| 2026-05-08 08:31 | 51.37239 | 16.81285 | 35154 ft | 452 kts | 160° |
| 2026-05-08 08:31 | 51.31422 | 16.85093 | 35155 ft | 452 kts | 160° |
| 2026-05-08 08:32 | 51.25597 | 16.88889 | 35141 ft | 452 kts | 161° |
| 2026-05-08 08:32 | 51.19767 | 16.92682 | 35146 ft | 452 kts | 161° |
| 2026-05-08 08:33 | 51.13939 | 16.96465 | 35152 ft | 452 kts | 160° |
| 2026-05-08 08:33 | 51.08112 | 17.00231 | 35152 ft | 452 kts | 161° |
| 2026-05-08 08:34 | 51.02278 | 17.03992 | 35136 ft | 452 kts | 161° |
| 2026-05-08 08:34 | 50.96455 | 17.07752 | 35139 ft | 452 kts | 161° |
| 2026-05-08 08:35 | 50.90623 | 17.11504 | 35140 ft | 452 kts | 161° |
| 2026-05-08 08:35 | 50.84786 | 17.15240 | 35137 ft | 453 kts | 161° |
| 2026-05-08 08:36 | 50.78943 | 17.18956 | 35149 ft | 452 kts | 161° |
| 2026-05-08 08:36 | 50.73140 | 17.22645 | 35135 ft | 452 kts | 161° |
| 2026-05-08 08:37 | 50.67263 | 17.26375 | 35130 ft | 452 kts | 161° |
| 2026-05-08 08:37 | 50.61465 | 17.30056 | 35129 ft | 453 kts | 161° |
| 2026-05-08 08:38 | 50.55620 | 17.33757 | 35134 ft | 453 kts | 161° |
| 2026-05-08 08:38 | 50.49769 | 17.37452 | 35102 ft | 453 kts | 162° |
| 2026-05-08 08:39 | 50.43911 | 17.41122 | 35110 ft | 453 kts | 162° |
| 2026-05-08 08:39 | 50.38057 | 17.44783 | 35117 ft | 453 kts | 162° |
| 2026-05-08 08:40 | 50.32203 | 17.48440 | 35121 ft | 453 kts | 162° |
| 2026-05-08 08:40 | 50.26378 | 17.52196 | 35120 ft | 455 kts | 156° |
| 2026-05-08 08:41 | 50.20768 | 17.56814 | 35113 ft | 455 kts | 156° |
| 2026-05-08 08:41 | 50.15163 | 17.61409 | 35111 ft | 455 kts | 156° |
| 2026-05-08 08:42 | 50.09549 | 17.65974 | 35109 ft | 455 kts | 156° |
| 2026-05-08 08:42 | 50.03940 | 17.70521 | 35109 ft | 455 kts | 156° |
| 2026-05-08 08:43 | 49.98332 | 17.75068 | 35110 ft | 454 kts | 156° |
| 2026-05-08 08:43 | 49.92728 | 17.79606 | 35090 ft | 454 kts | 157° |
| 2026-05-08 08:44 | 49.87120 | 17.84134 | 35103 ft | 455 kts | 157° |
| 2026-05-08 08:44 | 49.81500 | 17.88661 | 35112 ft | 455 kts | 157° |
| 2026-05-08 08:45 | 49.75879 | 17.93169 | 35121 ft | 455 kts | 157° |
| 2026-05-08 08:45 | 49.70259 | 17.97664 | 35121 ft | 455 kts | 158° |
| 2026-05-08 08:46 | 49.64560 | 18.01855 | 35126 ft | 453 kts | 160° |
| 2026-05-08 08:46 | 49.58790 | 18.05739 | 35126 ft | 452 kts | 161° |
| 2026-05-08 08:47 | 49.53019 | 18.09628 | 35115 ft | 453 kts | 160° |
| 2026-05-08 08:47 | 49.47275 | 18.13609 | 35113 ft | 453 kts | 160° |
| 2026-05-08 08:48 | 49.41540 | 18.17614 | 35075 ft | 453 kts | 161° |
| 2026-05-08 08:48 | 49.35793 | 18.21579 | 35076 ft | 453 kts | 161° |
| 2026-05-08 08:49 | 49.30039 | 18.25525 | 35062 ft | 453 kts | 161° |
| 2026-05-08 08:49 | 49.24285 | 18.29467 | 35069 ft | 453 kts | 161° |
| 2026-05-08 08:50 | 49.18534 | 18.33409 | 35064 ft | 453 kts | 161° |
| 2026-05-08 08:50 | 49.12840 | 18.37406 | 35044 ft | 455 kts | 159° |
| 2026-05-08 08:51 | 49.07232 | 18.41927 | 35038 ft | 457 kts | 156° |
| 2026-05-08 08:51 | 49.01665 | 18.46625 | 35040 ft | 457 kts | 156° |
| 2026-05-08 08:52 | 48.96073 | 18.51231 | 35044 ft | 457 kts | 158° |
| 2026-05-08 08:52 | 48.90456 | 18.55723 | 35024 ft | 456 kts | 158° |
| 2026-05-08 08:53 | 48.84823 | 18.60206 | 35032 ft | 457 kts | 158° |
| 2026-05-08 08:53 | 48.79200 | 18.64711 | 35036 ft | 457 kts | 158° |
| 2026-05-08 08:54 | 48.73580 | 18.69214 | 35032 ft | 457 kts | 158° |
| 2026-05-08 08:54 | 48.67965 | 18.73687 | 35036 ft | 456 kts | 158° |
| 2026-05-08 08:55 | 48.62335 | 18.78150 | 35023 ft | 457 kts | 158° |
| 2026-05-08 08:55 | 48.56667 | 18.82444 | 35035 ft | 452 kts | 164° |
| 2026-05-08 08:56 | 48.50841 | 18.86036 | 35038 ft | 452 kts | 164° |
| 2026-05-08 08:56 | 48.45009 | 18.89636 | 35034 ft | 453 kts | 164° |
| 2026-05-08 08:57 | 48.39180 | 18.93235 | 35027 ft | 453 kts | 164° |
| 2026-05-08 08:57 | 48.33347 | 18.96827 | 35037 ft | 453 kts | 164° |
| 2026-05-08 08:58 | 48.27512 | 19.00403 | 35051 ft | 453 kts | 164° |
| 2026-05-08 08:58 | 48.21681 | 19.03965 | 35062 ft | 452 kts | 164° |
| 2026-05-08 08:59 | 48.15848 | 19.07525 | 35051 ft | 452 kts | 164° |
| 2026-05-08 08:59 | 48.10022 | 19.11070 | 35037 ft | 452 kts | 164° |
| 2026-05-08 09:00 | 48.04176 | 19.14520 | 35043 ft | 450 kts | 166° |
| 2026-05-08 09:00 | 47.98274 | 19.17601 | 35054 ft | 449 kts | 167° |
| 2026-05-08 09:01 | 47.92346 | 19.20578 | 35062 ft | 449 kts | 167° |
| 2026-05-08 09:01 | 47.86434 | 19.23618 | 35048 ft | 450 kts | 167° |
| 2026-05-08 09:02 | 47.80526 | 19.26721 | 35054 ft | 451 kts | 167° |
| 2026-05-08 09:02 | 47.74608 | 19.29820 | 35047 ft | 451 kts | 167° |
| 2026-05-08 09:03 | 47.68736 | 19.32877 | 35058 ft | 450 kts | 167° |
| 2026-05-08 09:03 | 47.62814 | 19.35923 | 35052 ft | 450 kts | 168° |
| 2026-05-08 09:04 | 47.56901 | 19.38963 | 35063 ft | 450 kts | 167° |
| 2026-05-08 09:04 | 47.50987 | 19.42010 | 35072 ft | 450 kts | 167° |
| 2026-05-08 09:05 | 47.45076 | 19.45040 | 35075 ft | 450 kts | 167° |
| 2026-05-08 09:05 | 47.39162 | 19.48078 | 35040 ft | 450 kts | 167° |
| 2026-05-08 09:06 | 47.33254 | 19.51120 | 35071 ft | 449 kts | 168° |
| 2026-05-08 09:06 | 47.27348 | 19.54136 | 35085 ft | 449 kts | 168° |
| 2026-05-08 09:07 | 47.21452 | 19.57131 | 35080 ft | 448 kts | 168° |
| 2026-05-08 09:07 | 47.15553 | 19.60123 | 35081 ft | 448 kts | 168° |
| 2026-05-08 09:08 | 47.09667 | 19.63101 | 35081 ft | 448 kts | 168° |
| 2026-05-08 09:08 | 47.03774 | 19.66073 | 35073 ft | 447 kts | 168° |
| 2026-05-08 09:09 | 46.98887 | 19.68534 | 35068 ft | 447 kts | 168° |
| 2026-05-08 09:09 | 46.93008 | 19.71490 | 35072 ft | 447 kts | 168° |
| 2026-05-08 09:10 | 46.87130 | 19.74440 | 35071 ft | 446 kts | 168° |
| 2026-05-08 09:10 | 46.81254 | 19.77381 | 35077 ft | 446 kts | 168° |
| 2026-05-08 09:11 | 46.75383 | 19.80314 | 35080 ft | 446 kts | 168° |
| 2026-05-08 09:11 | 46.69512 | 19.83244 | 35080 ft | 446 kts | 168° |
| 2026-05-08 09:12 | 46.63645 | 19.86172 | 35050 ft | 446 kts | 168° |
| 2026-05-08 09:12 | 46.57772 | 19.89083 | 35068 ft | 446 kts | 168° |
| 2026-05-08 09:13 | 46.51897 | 19.91983 | 35079 ft | 446 kts | 168° |
| 2026-05-08 09:13 | 46.46028 | 19.94888 | 35082 ft | 445 kts | 168° |
| 2026-05-08 09:14 | 46.40172 | 19.97775 | 35078 ft | 444 kts | 168° |
| 2026-05-08 09:14 | 46.34321 | 20.00640 | 35084 ft | 443 kts | 168° |
| 2026-05-08 09:15 | 46.28481 | 20.03508 | 35090 ft | 442 kts | 168° |
| 2026-05-08 09:15 | 46.22690 | 20.06345 | 35088 ft | 442 kts | 168° |
| 2026-05-08 09:16 | 46.16849 | 20.09324 | 35090 ft | 445 kts | 161° |
| 2026-05-08 09:16 | 46.11495 | 20.13849 | 35093 ft | 451 kts | 153° |
| 2026-05-08 09:17 | 46.06178 | 20.18644 | 35096 ft | 451 kts | 154° |
| 2026-05-08 09:17 | 46.00854 | 20.23421 | 35080 ft | 451 kts | 154° |
| 2026-05-08 09:18 | 45.95538 | 20.28200 | 35068 ft | 451 kts | 153° |
| 2026-05-08 09:18 | 45.90221 | 20.32971 | 35077 ft | 450 kts | 153° |
| 2026-05-08 09:19 | 45.84905 | 20.37726 | 35085 ft | 450 kts | 153° |
| 2026-05-08 09:19 | 45.79586 | 20.42450 | 35081 ft | 449 kts | 154° |
| 2026-05-08 09:20 | 45.74273 | 20.47169 | 35071 ft | 449 kts | 153° |
| 2026-05-08 09:20 | 45.68977 | 20.51876 | 35076 ft | 448 kts | 153° |
| 2026-05-08 09:21 | 45.63689 | 20.56562 | 35082 ft | 447 kts | 153° |
| 2026-05-08 09:23 | 45.45222 | 20.72830 | 35059 ft | 445 kts | 153° |
| 2026-05-08 09:23 | 45.39946 | 20.77447 | 35063 ft | 445 kts | 153° |
| 2026-05-08 09:24 | 45.34698 | 20.82027 | 35066 ft | 446 kts | 153° |
| 2026-05-08 09:24 | 45.29410 | 20.86636 | 35062 ft | 446 kts | 153° |
| 2026-05-08 09:25 | 45.24124 | 20.91238 | 35053 ft | 446 kts | 153° |
| 2026-05-08 09:25 | 45.18834 | 20.95843 | 35068 ft | 446 kts | 153° |
| 2026-05-08 09:26 | 45.13541 | 21.00437 | 35073 ft | 446 kts | 153° |
| 2026-05-08 09:26 | 45.08247 | 21.05018 | 35078 ft | 446 kts | 154° |
| 2026-05-08 09:27 | 45.02952 | 21.09580 | 35084 ft | 445 kts | 154° |
| 2026-05-08 09:27 | 44.97661 | 21.14131 | 35063 ft | 445 kts | 154° |
| 2026-05-08 09:28 | 44.92372 | 21.18683 | 35059 ft | 445 kts | 154° |
| 2026-05-08 09:28 | 44.87088 | 21.23221 | 35066 ft | 445 kts | 154° |
| 2026-05-08 09:29 | 44.81797 | 21.27747 | 35066 ft | 444 kts | 154° |
| 2026-05-08 09:29 | 44.76507 | 21.32257 | 35070 ft | 445 kts | 154° |
| 2026-05-08 09:30 | 44.71215 | 21.36767 | 35068 ft | 445 kts | 154° |
| 2026-05-08 09:30 | 44.65920 | 21.41271 | 35071 ft | 445 kts | 154° |
| 2026-05-08 09:31 | 44.60624 | 21.45761 | 35075 ft | 444 kts | 154° |
| 2026-05-08 09:31 | 44.55333 | 21.50233 | 35072 ft | 444 kts | 154° |
| 2026-05-08 09:32 | 44.50038 | 21.54708 | 35056 ft | 444 kts | 154° |
| 2026-05-08 09:32 | 44.44738 | 21.59164 | 35056 ft | 444 kts | 154° |
| 2026-05-08 09:33 | 44.39445 | 21.63622 | 35068 ft | 444 kts | 154° |
| 2026-05-08 09:33 | 44.34145 | 21.68071 | 35074 ft | 444 kts | 155° |
| 2026-05-08 09:34 | 44.28849 | 21.72506 | 35072 ft | 444 kts | 155° |
| 2026-05-08 09:34 | 44.23591 | 21.76905 | 35054 ft | 443 kts | 155° |
| 2026-05-08 09:35 | 44.18297 | 21.81315 | 35062 ft | 443 kts | 155° |
| 2026-05-08 09:35 | 44.13004 | 21.85724 | 35068 ft | 443 kts | 155° |
| 2026-05-08 09:36 | 44.07716 | 21.90109 | 35066 ft | 443 kts | 155° |
| 2026-05-08 09:36 | 44.02422 | 21.94496 | 35061 ft | 442 kts | 155° |
| 2026-05-08 09:37 | 43.97131 | 21.98863 | 35062 ft | 442 kts | 155° |
| 2026-05-08 09:37 | 43.91843 | 22.03219 | 35073 ft | 441 kts | 155° |
| 2026-05-08 09:38 | 43.86569 | 22.07566 | 35072 ft | 441 kts | 155° |
| 2026-05-08 09:38 | 43.81293 | 22.11904 | 35070 ft | 441 kts | 155° |
| 2026-05-08 09:39 | 43.76023 | 22.16229 | 35066 ft | 440 kts | 154° |
| 2026-05-08 09:39 | 43.70758 | 22.20549 | 35070 ft | 440 kts | 154° |
| 2026-05-08 09:40 | 43.65483 | 22.24852 | 35074 ft | 440 kts | 155° |
| 2026-05-08 09:40 | 43.60211 | 22.29135 | 35077 ft | 440 kts | 155° |
| 2026-05-08 09:41 | 43.54939 | 22.33424 | 35079 ft | 439 kts | 154° |
| 2026-05-08 09:41 | 43.49670 | 22.37710 | 35054 ft | 440 kts | 154° |
| 2026-05-08 09:42 | 43.44389 | 22.41991 | 35053 ft | 441 kts | 154° |
| 2026-05-08 09:42 | 43.39093 | 22.46268 | 35059 ft | 442 kts | 154° |
| 2026-05-08 09:43 | 43.33788 | 22.50543 | 35062 ft | 442 kts | 154° |
| 2026-05-08 09:43 | 43.28479 | 22.54815 | 35048 ft | 443 kts | 154° |
| 2026-05-08 09:44 | 43.23162 | 22.59086 | 35077 ft | 442 kts | 154° |
| 2026-05-08 09:44 | 43.17849 | 22.63338 | 35073 ft | 442 kts | 154° |
| 2026-05-08 09:45 | 43.12539 | 22.67583 | 35084 ft | 442 kts | 154° |
| 2026-05-08 09:45 | 43.07220 | 22.71821 | 35073 ft | 442 kts | 154° |
| 2026-05-08 09:46 | 43.01897 | 22.76096 | 35081 ft | 444 kts | 154° |
| 2026-05-08 09:46 | 42.96568 | 22.80353 | 35088 ft | 444 kts | 153° |
| 2026-05-08 09:47 | 42.91375 | 22.84898 | 35088 ft | 444 kts | 150° |
| 2026-05-08 09:47 | 42.86330 | 22.89667 | 35088 ft | 444 kts | 150° |
| 2026-05-08 09:48 | 42.81207 | 22.94460 | 35069 ft | 442 kts | 150° |
| 2026-05-08 09:48 | 42.76049 | 22.99122 | 35103 ft | 445 kts | 150° |
| 2026-05-08 09:49 | 42.70894 | 23.03781 | 35107 ft | 445 kts | 150° |
| 2026-05-08 09:49 | 42.65782 | 23.08413 | 35110 ft | 445 kts | 150° |
| 2026-05-08 09:50 | 42.60656 | 23.13052 | 35099 ft | 442 kts | 150° |
| 2026-05-08 09:50 | 42.55527 | 23.17681 | 35095 ft | 444 kts | 151° |
| 2026-05-08 09:51 | 42.50361 | 23.22303 | 35109 ft | 446 kts | 151° |
| 2026-05-08 09:51 | 42.45159 | 23.26957 | 35124 ft | 448 kts | 150° |
| 2026-05-08 09:52 | 42.39993 | 23.31606 | 35127 ft | 443 kts | 150° |
| 2026-05-08 09:52 | 42.34877 | 23.36235 | 35121 ft | 441 kts | 150° |
| 2026-05-08 09:53 | 42.29767 | 23.40802 | 35121 ft | 440 kts | 151° |
| 2026-05-08 09:53 | 42.24700 | 23.45488 | 35106 ft | 442 kts | 149° |
| 2026-05-08 09:54 | 42.19709 | 23.50354 | 35107 ft | 444 kts | 148° |
| 2026-05-08 09:54 | 42.14709 | 23.55229 | 35105 ft | 443 kts | 149° |
| 2026-05-08 09:55 | 42.09692 | 23.60048 | 35104 ft | 443 kts | 149° |
| 2026-05-08 09:55 | 42.04663 | 23.64853 | 35112 ft | 443 kts | 149° |
| 2026-05-08 09:56 | 41.99638 | 23.69639 | 35124 ft | 442 kts | 149° |
| 2026-05-08 09:56 | 41.95463 | 23.73616 | 35136 ft | 443 kts | 149° |
| 2026-05-08 09:57 | 41.87918 | 23.80794 | 35101 ft | 443 kts | 149° |
| 2026-05-08 09:57 | 41.82876 | 23.85571 | 35116 ft | 444 kts | 149° |
| 2026-05-08 09:58 | 41.77838 | 23.90343 | 35118 ft | 443 kts | 149° |
| 2026-05-08 09:58 | 41.72798 | 23.95104 | 35110 ft | 444 kts | 148° |
| 2026-05-08 09:59 | 41.67754 | 23.99873 | 35111 ft | 443 kts | 149° |
| 2026-05-08 09:59 | 41.62758 | 24.04553 | 35117 ft | 441 kts | 149° |
| 2026-05-08 10:00 | 41.57689 | 24.09300 | 35105 ft | 442 kts | 149° |
| 2026-05-08 10:00 | 41.52639 | 24.14015 | 35118 ft | 444 kts | 150° |
| 2026-05-08 10:01 | 41.47515 | 24.18624 | 35127 ft | 444 kts | 151° |
| 2026-05-08 10:01 | 41.42387 | 24.23139 | 35130 ft | 445 kts | 151° |
| 2026-05-08 10:02 | 41.37240 | 24.27696 | 35125 ft | 445 kts | 151° |
| 2026-05-08 10:02 | 41.32096 | 24.32276 | 35129 ft | 445 kts | 151° |
| 2026-05-08 10:03 | 41.26943 | 24.36856 | 35131 ft | 446 kts | 151° |
| 2026-05-08 10:03 | 41.21774 | 24.41428 | 35119 ft | 447 kts | 151° |
| 2026-05-08 10:04 | 41.16391 | 24.45432 | 35122 ft | 442 kts | 159° |
| 2026-05-08 10:04 | 41.10830 | 24.48986 | 35113 ft | 446 kts | 160° |
| 2026-05-08 10:05 | 41.05233 | 24.52566 | 35117 ft | 447 kts | 160° |
| 2026-05-08 10:05 | 40.99622 | 24.56159 | 35118 ft | 448 kts | 160° |
| 2026-05-08 10:06 | 40.94001 | 24.59744 | 35122 ft | 448 kts | 160° |
| 2026-05-08 10:06 | 40.88370 | 24.63319 | 35112 ft | 449 kts | 160° |
| 2026-05-08 10:07 | 40.82729 | 24.66897 | 35115 ft | 451 kts | 160° |
| 2026-05-08 10:07 | 40.77068 | 24.70484 | 35133 ft | 451 kts | 160° |
| 2026-05-08 10:08 | 40.71404 | 24.74085 | 35136 ft | 452 kts | 160° |
| 2026-05-08 10:08 | 40.65737 | 24.77687 | 35131 ft | 452 kts | 161° |
| 2026-05-08 10:09 | 40.60059 | 24.81275 | 35140 ft | 453 kts | 161° |
| 2026-05-08 10:09 | 40.54370 | 24.84851 | 35146 ft | 453 kts | 161° |
| 2026-05-08 10:10 | 40.48672 | 24.88411 | 35149 ft | 454 kts | 161° |
| 2026-05-08 10:10 | 40.42976 | 24.91982 | 35137 ft | 453 kts | 161° |
| 2026-05-08 10:11 | 40.37285 | 24.95553 | 35142 ft | 453 kts | 161° |
| 2026-05-08 10:11 | 40.31593 | 24.99113 | 35149 ft | 453 kts | 161° |
| 2026-05-08 10:12 | 40.25901 | 25.02671 | 35141 ft | 453 kts | 162° |
| 2026-05-08 10:12 | 40.20208 | 25.06225 | 35132 ft | 453 kts | 162° |
| 2026-05-08 10:13 | 40.14546 | 25.09739 | 35151 ft | 454 kts | 162° |
| 2026-05-08 10:13 | 40.08851 | 25.13281 | 35165 ft | 453 kts | 163° |
| 2026-05-08 10:14 | 40.03157 | 25.16812 | 35145 ft | 453 kts | 162° |
| 2026-05-08 10:14 | 39.97466 | 25.20315 | 35149 ft | 452 kts | 163° |
| 2026-05-08 10:15 | 39.91768 | 25.23741 | 35133 ft | 447 kts | 168° |
| 2026-05-08 10:15 | 39.85910 | 25.26218 | 35133 ft | 442 kts | 171° |
| 2026-05-08 10:16 | 39.80035 | 25.28620 | 35139 ft | 442 kts | 171° |
| 2026-05-08 10:16 | 39.74166 | 25.31012 | 35125 ft | 443 kts | 171° |
| 2026-05-08 10:17 | 39.68287 | 25.33409 | 35135 ft | 442 kts | 172° |
| 2026-05-08 10:17 | 39.62427 | 25.35789 | 35143 ft | 443 kts | 171° |
| 2026-05-08 10:18 | 39.56540 | 25.38185 | 35143 ft | 444 kts | 171° |
| 2026-05-08 10:18 | 39.50643 | 25.40591 | 35131 ft | 445 kts | 172° |
| 2026-05-08 10:19 | 39.44735 | 25.42991 | 35145 ft | 445 kts | 172° |
| 2026-05-08 10:20 | 39.35873 | 25.46573 | 35154 ft | 445 kts | 172° |
| 2026-05-08 10:20 | 39.29963 | 25.48955 | 35160 ft | 446 kts | 172° |
| 2026-05-08 10:21 | 39.24034 | 25.51342 | 35148 ft | 447 kts | 172° |
| 2026-05-08 10:21 | 39.18101 | 25.53743 | 35159 ft | 447 kts | 172° |
| 2026-05-08 10:22 | 39.12165 | 25.56136 | 35163 ft | 447 kts | 172° |
| 2026-05-08 10:22 | 39.06227 | 25.58508 | 35147 ft | 447 kts | 172° |
| 2026-05-08 10:23 | 39.00282 | 25.60870 | 35150 ft | 447 kts | 172° |
| 2026-05-08 10:23 | 38.94352 | 25.63248 | 35153 ft | 446 kts | 172° |
| 2026-05-08 10:24 | 38.88410 | 25.65618 | 35135 ft | 448 kts | 173° |
| 2026-05-08 10:24 | 38.82426 | 25.67999 | 35136 ft | 455 kts | 172° |
| 2026-05-08 10:25 | 38.76373 | 25.70403 | 35141 ft | 456 kts | 173° |
| 2026-05-08 10:25 | 38.70320 | 25.72806 | 35145 ft | 455 kts | 173° |
| 2026-05-08 10:26 | 38.64253 | 25.75206 | 35154 ft | 457 kts | 173° |
| 2026-05-08 10:26 | 38.58180 | 25.77606 | 35162 ft | 458 kts | 172° |
| 2026-05-08 10:27 | 38.52088 | 25.80014 | 35162 ft | 458 kts | 173° |
| 2026-05-08 10:27 | 38.45999 | 25.82412 | 35162 ft | 458 kts | 173° |
| 2026-05-08 10:28 | 38.39909 | 25.84809 | 35162 ft | 459 kts | 173° |
| 2026-05-08 10:28 | 38.33813 | 25.87203 | 35146 ft | 459 kts | 173° |
| 2026-05-08 10:29 | 38.27705 | 25.89573 | 35152 ft | 459 kts | 173° |
| 2026-05-08 10:29 | 38.21597 | 25.92047 | 35155 ft | 463 kts | 171° |
| 2026-05-08 10:30 | 38.15530 | 25.94857 | 35160 ft | 465 kts | 169° |
| 2026-05-08 10:30 | 38.09462 | 25.97738 | 35137 ft | 466 kts | 169° |
| 2026-05-08 10:31 | 38.03357 | 26.00552 | 35144 ft | 468 kts | 169° |
| 2026-05-08 10:31 | 37.97202 | 26.03333 | 34772 ft | 471 kts | 169° |
| 2026-05-08 10:31 | 37.94082 | 26.04732 | 33837 ft | 479 kts | 170° |
| 2026-05-08 10:32 | 37.90984 | 26.06124 | 33300 ft | 476 kts | 170° |
| 2026-05-08 10:32 | 37.87874 | 26.07531 | 32675 ft | 474 kts | 169° |
| 2026-05-08 10:32 | 37.84781 | 26.08936 | 32102 ft | 471 kts | 168° |
| 2026-05-08 10:32 | 37.81704 | 26.10338 | 31516 ft | 469 kts | 168° |
| 2026-05-08 10:33 | 37.78644 | 26.11725 | 30939 ft | 466 kts | 168° |
| 2026-05-08 10:33 | 37.75594 | 26.13104 | 30356 ft | 464 kts | 168° |